sensor_id;sensor_type;location;lat;lon;timestamp;P1;durP1;ratioP1;P2;durP2;ratioP2
15287;SDS011;7745;48.708;9.026;2023-03-29T00:00:59;3.13;;;2.33;;
15287;SDS011;7745;48.708;9.026;2023-03-29T00:03:26;2.37;;;2.10;;
15287;SDS011;7745;48.708;9.026;2023-03-29T00:05:57;2.63;;;2.10;;
15287;SDS011;7745;48.708;9.026;2023-03-29T00:08:27;3.77;;;2.33;;
15287;SDS011;7745;48.708;9.026;2023-03-29T00:10:56;4.10;;;2.27;;
15287;SDS011;7745;48.708;9.026;2023-03-29T00:13:23;3.47;;;2.40;;
15287;SDS011;7745;48.708;9.026;2023-03-29T00:15:51;3.30;;;2.03;;
15287;SDS011;7745;48.708;9.026;2023-03-29T00:18:18;4.53;;;2.43;;
15287;SDS011;7745;48.708;9.026;2023-03-29T00:20:45;2.37;;;2.17;;
15287;SDS011;7745;48.708;9.026;2023-03-29T00:23:11;4.90;;;2.47;;
15287;SDS011;7745;48.708;9.026;2023-03-29T00:25:42;2.90;;;2.60;;
15287;SDS011;7745;48.708;9.026;2023-03-29T00:28:11;3.30;;;2.27;;
15287;SDS011;7745;48.708;9.026;2023-03-29T00:30:38;4.60;;;2.77;;
15287;SDS011;7745;48.708;9.026;2023-03-29T00:33:05;4.97;;;2.77;;
15287;SDS011;7745;48.708;9.026;2023-03-29T00:35:32;4.20;;;2.60;;
15287;SDS011;7745;48.708;9.026;2023-03-29T00:37:59;5.70;;;2.80;;
15287;SDS011;7745;48.708;9.026;2023-03-29T00:40:27;3.97;;;2.70;;
15287;SDS011;7745;48.708;9.026;2023-03-29T00:42:53;3.40;;;2.87;;
15287;SDS011;7745;48.708;9.026;2023-03-29T00:45:24;3.43;;;2.60;;
15287;SDS011;7745;48.708;9.026;2023-03-29T00:47:55;4.13;;;2.60;;
15287;SDS011;7745;48.708;9.026;2023-03-29T00:50:24;4.40;;;2.80;;
15287;SDS011;7745;48.708;9.026;2023-03-29T00:52:55;6.13;;;3.07;;
15287;SDS011;7745;48.708;9.026;2023-03-29T00:55:28;3.50;;;2.60;;
15287;SDS011;7745;48.708;9.026;2023-03-29T00:57:57;5.07;;;2.83;;
15287;SDS011;7745;48.708;9.026;2023-03-29T01:00:27;4.27;;;2.80;;
15287;SDS011;7745;48.708;9.026;2023-03-29T01:02:57;5.97;;;3.10;;
15287;SDS011;7745;48.708;9.026;2023-03-29T01:05:27;4.97;;;3.60;;
15287;SDS011;7745;48.708;9.026;2023-03-29T01:07:58;4.43;;;2.77;;
15287;SDS011;7745;48.708;9.026;2023-03-29T01:10:30;5.30;;;3.10;;
15287;SDS011;7745;48.708;9.026;2023-03-29T01:13:00;6.33;;;3.30;;
15287;SDS011;7745;48.708;9.026;2023-03-29T01:15:32;3.90;;;3.07;;
15287;SDS011;7745;48.708;9.026;2023-03-29T01:18:00;4.50;;;3.50;;
15287;SDS011;7745;48.708;9.026;2023-03-29T01:20:30;5.77;;;3.80;;
15287;SDS011;7745;48.708;9.026;2023-03-29T01:23:14;5.23;;;3.73;;
15287;SDS011;7745;48.708;9.026;2023-03-29T01:25:58;3.57;;;2.63;;
15287;SDS011;7745;48.708;9.026;2023-03-29T01:28:32;6.03;;;2.90;;
15287;SDS011;7745;48.708;9.026;2023-03-29T01:31:02;5.23;;;2.80;;
15287;SDS011;7745;48.708;9.026;2023-03-29T01:33:36;4.47;;;2.40;;
15287;SDS011;7745;48.708;9.026;2023-03-29T01:36:08;5.07;;;2.73;;
15287;SDS011;7745;48.708;9.026;2023-03-29T01:38:44;2.97;;;2.67;;
15287;SDS011;7745;48.708;9.026;2023-03-29T01:41:14;4.77;;;2.80;;
15287;SDS011;7745;48.708;9.026;2023-03-29T01:43:42;5.73;;;2.93;;
15287;SDS011;7745;48.708;9.026;2023-03-29T01:46:17;2.70;;;2.47;;
15287;SDS011;7745;48.708;9.026;2023-03-29T01:48:50;3.27;;;2.50;;
15287;SDS011;7745;48.708;9.026;2023-03-29T01:51:21;4.23;;;2.63;;
15287;SDS011;7745;48.708;9.026;2023-03-29T01:53:52;5.30;;;3.00;;
15287;SDS011;7745;48.708;9.026;2023-03-29T01:56:23;4.57;;;2.57;;
15287;SDS011;7745;48.708;9.026;2023-03-29T01:58:54;3.10;;;2.50;;
15287;SDS011;7745;48.708;9.026;2023-03-29T02:01:26;4.57;;;2.83;;
15287;SDS011;7745;48.708;9.026;2023-03-29T02:03:56;2.97;;;2.67;;
15287;SDS011;7745;48.708;9.026;2023-03-29T02:06:26;3.37;;;2.70;;
15287;SDS011;7745;48.708;9.026;2023-03-29T02:08:55;3.57;;;2.50;;
15287;SDS011;7745;48.708;9.026;2023-03-29T02:11:23;3.07;;;2.83;;
15287;SDS011;7745;48.708;9.026;2023-03-29T02:13:54;3.80;;;2.67;;
15287;SDS011;7745;48.708;9.026;2023-03-29T02:16:21;4.80;;;2.67;;
15287;SDS011;7745;48.708;9.026;2023-03-29T02:18:49;3.27;;;2.50;;
15287;SDS011;7745;48.708;9.026;2023-03-29T02:21:20;3.70;;;2.57;;
15287;SDS011;7745;48.708;9.026;2023-03-29T02:23:51;3.13;;;2.70;;
15287;SDS011;7745;48.708;9.026;2023-03-29T02:26:20;3.97;;;2.80;;
15287;SDS011;7745;48.708;9.026;2023-03-29T02:28:48;3.10;;;2.37;;
15287;SDS011;7745;48.708;9.026;2023-03-29T02:31:17;3.63;;;2.50;;
15287;SDS011;7745;48.708;9.026;2023-03-29T02:33:49;4.47;;;2.73;;
15287;SDS011;7745;48.708;9.026;2023-03-29T02:36:20;4.10;;;2.30;;
15287;SDS011;7745;48.708;9.026;2023-03-29T02:38:49;2.73;;;2.37;;
15287;SDS011;7745;48.708;9.026;2023-03-29T02:41:17;4.87;;;2.40;;
15287;SDS011;7745;48.708;9.026;2023-03-29T02:43:44;5.33;;;2.67;;
15287;SDS011;7745;48.708;9.026;2023-03-29T02:46:13;2.77;;;2.30;;
15287;SDS011;7745;48.708;9.026;2023-03-29T02:48:42;2.80;;;2.27;;
15287;SDS011;7745;48.708;9.026;2023-03-29T02:51:14;5.43;;;2.43;;
15287;SDS011;7745;48.708;9.026;2023-03-29T02:53:45;3.77;;;2.17;;
15287;SDS011;7745;48.708;9.026;2023-03-29T02:56:16;3.23;;;2.20;;
15287;SDS011;7745;48.708;9.026;2023-03-29T02:58:44;2.70;;;2.20;;
15287;SDS011;7745;48.708;9.026;2023-03-29T03:01:11;3.20;;;2.53;;
15287;SDS011;7745;48.708;9.026;2023-03-29T03:03:38;3.60;;;2.47;;
15287;SDS011;7745;48.708;9.026;2023-03-29T03:06:07;4.40;;;2.27;;
15287;SDS011;7745;48.708;9.026;2023-03-29T03:08:33;4.00;;;2.70;;
15287;SDS011;7745;48.708;9.026;2023-03-29T03:11:00;3.07;;;2.20;;
15287;SDS011;7745;48.708;9.026;2023-03-29T03:13:27;4.17;;;2.57;;
15287;SDS011;7745;48.708;9.026;2023-03-29T03:15:54;3.67;;;2.40;;
15287;SDS011;7745;48.708;9.026;2023-03-29T03:18:20;2.93;;;2.47;;
15287;SDS011;7745;48.708;9.026;2023-03-29T03:20:54;2.63;;;2.27;;
15287;SDS011;7745;48.708;9.026;2023-03-29T03:23:23;2.20;;;2.00;;
15287;SDS011;7745;48.708;9.026;2023-03-29T03:25:50;4.50;;;2.30;;
15287;SDS011;7745;48.708;9.026;2023-03-29T03:28:17;3.27;;;1.90;;
15287;SDS011;7745;48.708;9.026;2023-03-29T03:30:46;1.97;;;1.77;;
15287;SDS011;7745;48.708;9.026;2023-03-29T03:33:13;6.57;;;1.77;;
15287;SDS011;7745;48.708;9.026;2023-03-29T03:35:40;3.73;;;2.10;;
15287;SDS011;7745;48.708;9.026;2023-03-29T03:38:10;2.53;;;2.03;;
15287;SDS011;7745;48.708;9.026;2023-03-29T03:40:38;2.20;;;2.00;;
15287;SDS011;7745;48.708;9.026;2023-03-29T03:43:05;3.13;;;1.83;;
15287;SDS011;7745;48.708;9.026;2023-03-29T03:45:32;2.40;;;2.07;;
15287;SDS011;7745;48.708;9.026;2023-03-29T03:47:58;1.90;;;1.43;;
15287;SDS011;7745;48.708;9.026;2023-03-29T03:50:25;3.83;;;1.53;;
15287;SDS011;7745;48.708;9.026;2023-03-29T03:52:52;3.90;;;1.97;;
15287;SDS011;7745;48.708;9.026;2023-03-29T03:55:19;2.40;;;1.53;;
15287;SDS011;7745;48.708;9.026;2023-03-29T03:57:48;3.17;;;1.87;;
15287;SDS011;7745;48.708;9.026;2023-03-29T04:00:16;2.60;;;1.80;;
15287;SDS011;7745;48.708;9.026;2023-03-29T04:02:46;4.00;;;1.97;;
15287;SDS011;7745;48.708;9.026;2023-03-29T04:05:14;2.53;;;2.00;;
15287;SDS011;7745;48.708;9.026;2023-03-29T04:07:41;4.07;;;1.80;;
15287;SDS011;7745;48.708;9.026;2023-03-29T04:10:09;2.43;;;1.90;;
15287;SDS011;7745;48.708;9.026;2023-03-29T04:12:36;2.90;;;2.10;;
15287;SDS011;7745;48.708;9.026;2023-03-29T04:15:05;2.60;;;1.60;;
15287;SDS011;7745;48.708;9.026;2023-03-29T04:17:34;3.00;;;1.80;;
15287;SDS011;7745;48.708;9.026;2023-03-29T04:20:01;3.37;;;1.90;;
15287;SDS011;7745;48.708;9.026;2023-03-29T04:22:35;4.20;;;1.80;;
15287;SDS011;7745;48.708;9.026;2023-03-29T04:25:02;5.40;;;2.13;;
15287;SDS011;7745;48.708;9.026;2023-03-29T04:27:29;3.83;;;2.20;;
15287;SDS011;7745;48.708;9.026;2023-03-29T04:29:56;4.03;;;1.70;;
15287;SDS011;7745;48.708;9.026;2023-03-29T04:32:24;3.07;;;1.90;;
15287;SDS011;7745;48.708;9.026;2023-03-29T04:34:51;3.83;;;2.00;;
15287;SDS011;7745;48.708;9.026;2023-03-29T04:37:18;5.17;;;2.07;;
15287;SDS011;7745;48.708;9.026;2023-03-29T04:39:46;2.47;;;2.03;;
15287;SDS011;7745;48.708;9.026;2023-03-29T04:42:13;5.70;;;1.90;;
15287;SDS011;7745;48.708;9.026;2023-03-29T04:44:40;2.90;;;1.60;;
15287;SDS011;7745;48.708;9.026;2023-03-29T04:47:07;3.07;;;1.67;;
15287;SDS011;7745;48.708;9.026;2023-03-29T04:49:37;2.93;;;1.40;;
15287;SDS011;7745;48.708;9.026;2023-03-29T04:52:05;1.97;;;1.77;;
15287;SDS011;7745;48.708;9.026;2023-03-29T04:54:33;2.37;;;1.30;;
15287;SDS011;7745;48.708;9.026;2023-03-29T04:57:01;2.97;;;1.60;;
15287;SDS011;7745;48.708;9.026;2023-03-29T04:59:28;1.90;;;1.47;;
15287;SDS011;7745;48.708;9.026;2023-03-29T05:01:55;1.73;;;1.50;;
15287;SDS011;7745;48.708;9.026;2023-03-29T05:04:21;2.27;;;1.57;;
15287;SDS011;7745;48.708;9.026;2023-03-29T05:06:50;2.77;;;1.60;;
15287;SDS011;7745;48.708;9.026;2023-03-29T05:09:16;6.13;;;1.60;;
15287;SDS011;7745;48.708;9.026;2023-03-29T05:11:46;3.20;;;1.83;;
15287;SDS011;7745;48.708;9.026;2023-03-29T05:14:14;2.93;;;1.40;;
15287;SDS011;7745;48.708;9.026;2023-03-29T05:16:41;2.00;;;1.27;;
15287;SDS011;7745;48.708;9.026;2023-03-29T05:19:08;1.67;;;1.30;;
15287;SDS011;7745;48.708;9.026;2023-03-29T05:21:35;6.43;;;2.10;;
15287;SDS011;7745;48.708;9.026;2023-03-29T05:24:04;2.10;;;1.53;;
15287;SDS011;7745;48.708;9.026;2023-03-29T05:26:31;3.43;;;1.70;;
15287;SDS011;7745;48.708;9.026;2023-03-29T05:28:58;4.20;;;1.60;;
15287;SDS011;7745;48.708;9.026;2023-03-29T05:31:24;3.63;;;1.80;;
15287;SDS011;7745;48.708;9.026;2023-03-29T05:33:52;4.07;;;1.80;;
15287;SDS011;7745;48.708;9.026;2023-03-29T05:36:19;7.20;;;1.73;;
15287;SDS011;7745;48.708;9.026;2023-03-29T05:38:46;4.07;;;1.90;;
15287;SDS011;7745;48.708;9.026;2023-03-29T05:41:15;3.60;;;1.80;;
15287;SDS011;7745;48.708;9.026;2023-03-29T05:43:43;7.73;;;2.27;;
15287;SDS011;7745;48.708;9.026;2023-03-29T05:46:10;8.07;;;2.63;;
15287;SDS011;7745;48.708;9.026;2023-03-29T05:48:37;9.53;;;2.73;;
15287;SDS011;7745;48.708;9.026;2023-03-29T05:51:04;4.13;;;2.40;;
15287;SDS011;7745;48.708;9.026;2023-03-29T05:53:31;8.53;;;2.50;;
15287;SDS011;7745;48.708;9.026;2023-03-29T05:55:58;5.27;;;1.60;;
15287;SDS011;7745;48.708;9.026;2023-03-29T05:58:26;4.70;;;1.80;;
15287;SDS011;7745;48.708;9.026;2023-03-29T06:00:55;5.00;;;1.70;;
15287;SDS011;7745;48.708;9.026;2023-03-29T06:03:22;3.03;;;1.97;;
15287;SDS011;7745;48.708;9.026;2023-03-29T06:05:54;6.27;;;3.93;;
15287;SDS011;7745;48.708;9.026;2023-03-29T06:08:22;6.53;;;4.70;;
15287;SDS011;7745;48.708;9.026;2023-03-29T06:10:50;8.03;;;2.70;;
15287;SDS011;7745;48.708;9.026;2023-03-29T06:13:17;5.93;;;2.00;;
15287;SDS011;7745;48.708;9.026;2023-03-29T06:15:45;3.97;;;1.50;;
15287;SDS011;7745;48.708;9.026;2023-03-29T06:18:11;5.73;;;1.90;;
15287;SDS011;7745;48.708;9.026;2023-03-29T06:20:39;5.10;;;1.90;;
15287;SDS011;7745;48.708;9.026;2023-03-29T06:23:06;5.30;;;1.80;;
15287;SDS011;7745;48.708;9.026;2023-03-29T06:25:34;2.80;;;1.60;;
15287;SDS011;7745;48.708;9.026;2023-03-29T06:28:00;8.00;;;1.80;;
15287;SDS011;7745;48.708;9.026;2023-03-29T06:30:28;3.30;;;1.63;;
15287;SDS011;7745;48.708;9.026;2023-03-29T06:32:56;5.03;;;1.70;;
15287;SDS011;7745;48.708;9.026;2023-03-29T06:35:24;4.30;;;1.37;;
15287;SDS011;7745;48.708;9.026;2023-03-29T06:37:51;5.67;;;1.70;;
15287;SDS011;7745;48.708;9.026;2023-03-29T06:40:18;4.80;;;1.77;;
15287;SDS011;7745;48.708;9.026;2023-03-29T06:42:46;5.43;;;1.67;;
15287;SDS011;7745;48.708;9.026;2023-03-29T06:45:15;2.47;;;1.53;;
15287;SDS011;7745;48.708;9.026;2023-03-29T06:47:42;3.93;;;1.80;;
15287;SDS011;7745;48.708;9.026;2023-03-29T06:50:10;3.27;;;1.70;;
15287;SDS011;7745;48.708;9.026;2023-03-29T06:52:38;5.90;;;1.63;;
15287;SDS011;7745;48.708;9.026;2023-03-29T06:55:06;8.77;;;1.70;;
15287;SDS011;7745;48.708;9.026;2023-03-29T06:57:33;7.83;;;1.70;;
15287;SDS011;7745;48.708;9.026;2023-03-29T07:00:00;4.63;;;1.77;;
15287;SDS011;7745;48.708;9.026;2023-03-29T07:02:38;1.93;;;1.47;;
15287;SDS011;7745;48.708;9.026;2023-03-29T07:05:05;4.50;;;2.20;;
15287;SDS011;7745;48.708;9.026;2023-03-29T07:07:36;2.60;;;1.70;;
15287;SDS011;7745;48.708;9.026;2023-03-29T07:10:17;3.90;;;1.50;;
15287;SDS011;7745;48.708;9.026;2023-03-29T07:12:45;4.20;;;1.40;;
15287;SDS011;7745;48.708;9.026;2023-03-29T07:15:12;3.77;;;1.80;;
15287;SDS011;7745;48.708;9.026;2023-03-29T07:17:39;4.67;;;1.80;;
15287;SDS011;7745;48.708;9.026;2023-03-29T07:20:06;4.30;;;1.40;;
15287;SDS011;7745;48.708;9.026;2023-03-29T07:22:39;5.83;;;1.40;;
15287;SDS011;7745;48.708;9.026;2023-03-29T07:25:06;2.30;;;1.60;;
15287;SDS011;7745;48.708;9.026;2023-03-29T07:27:34;4.00;;;1.33;;
15287;SDS011;7745;48.708;9.026;2023-03-29T07:30:02;3.43;;;1.50;;
15287;SDS011;7745;48.708;9.026;2023-03-29T07:32:33;3.27;;;1.60;;
15287;SDS011;7745;48.708;9.026;2023-03-29T07:35:00;2.80;;;1.17;;
15287;SDS011;7745;48.708;9.026;2023-03-29T07:37:28;3.17;;;1.43;;
15287;SDS011;7745;48.708;9.026;2023-03-29T07:39:56;3.03;;;1.30;;
15287;SDS011;7745;48.708;9.026;2023-03-29T07:42:23;5.03;;;1.60;;
15287;SDS011;7745;48.708;9.026;2023-03-29T07:45:30;2.60;;;1.50;;
15287;SDS011;7745;48.708;9.026;2023-03-29T07:47:56;4.33;;;1.40;;
15287;SDS011;7745;48.708;9.026;2023-03-29T07:50:28;4.47;;;1.27;;
15287;SDS011;7745;48.708;9.026;2023-03-29T07:52:57;3.70;;;1.43;;
15287;SDS011;7745;48.708;9.026;2023-03-29T07:55:38;5.60;;;1.57;;
15287;SDS011;7745;48.708;9.026;2023-03-29T08:05:46;2.60;;;1.30;;
15287;SDS011;7745;48.708;9.026;2023-03-29T08:12:03;1.67;;;1.30;;
15287;SDS011;7745;48.708;9.026;2023-03-29T08:14:33;5.07;;;1.77;;
15287;SDS011;7745;48.708;9.026;2023-03-29T08:17:00;4.83;;;1.60;;
15287;SDS011;7745;48.708;9.026;2023-03-29T08:19:27;2.50;;;1.40;;
15287;SDS011;7745;48.708;9.026;2023-03-29T08:21:54;3.17;;;1.73;;
15287;SDS011;7745;48.708;9.026;2023-03-29T08:24:21;3.80;;;1.40;;
15287;SDS011;7745;48.708;9.026;2023-03-29T08:26:48;2.40;;;1.30;;
15287;SDS011;7745;48.708;9.026;2023-03-29T08:29:16;4.67;;;1.10;;
15287;SDS011;7745;48.708;9.026;2023-03-29T08:31:43;2.97;;;1.40;;
15287;SDS011;7745;48.708;9.026;2023-03-29T08:34:09;4.37;;;1.57;;
15287;SDS011;7745;48.708;9.026;2023-03-29T08:36:36;5.43;;;1.53;;
15287;SDS011;7745;48.708;9.026;2023-03-29T08:39:04;3.77;;;1.70;;
15287;SDS011;7745;48.708;9.026;2023-03-29T08:41:35;2.60;;;1.40;;
15287;SDS011;7745;48.708;9.026;2023-03-29T08:44:12;4.80;;;1.70;;
15287;SDS011;7745;48.708;9.026;2023-03-29T08:46:47;3.93;;;1.50;;
15287;SDS011;7745;48.708;9.026;2023-03-29T08:49:20;4.93;;;1.60;;
15287;SDS011;7745;48.708;9.026;2023-03-29T08:51:49;3.23;;;1.50;;
15287;SDS011;7745;48.708;9.026;2023-03-29T08:54:19;4.10;;;1.33;;
15287;SDS011;7745;48.708;9.026;2023-03-29T08:56:50;2.90;;;1.60;;
15287;SDS011;7745;48.708;9.026;2023-03-29T08:59:22;5.43;;;1.50;;
15287;SDS011;7745;48.708;9.026;2023-03-29T09:01:54;2.60;;;1.30;;
15287;SDS011;7745;48.708;9.026;2023-03-29T09:04:23;4.53;;;1.50;;
15287;SDS011;7745;48.708;9.026;2023-03-29T09:06:52;2.73;;;1.30;;
15287;SDS011;7745;48.708;9.026;2023-03-29T09:09:20;3.13;;;1.70;;
15287;SDS011;7745;48.708;9.026;2023-03-29T09:11:51;3.87;;;1.43;;
15287;SDS011;7745;48.708;9.026;2023-03-29T09:14:34;8.67;;;2.00;;
15287;SDS011;7745;48.708;9.026;2023-03-29T09:17:15;7.00;;;1.40;;
15287;SDS011;7745;48.708;9.026;2023-03-29T09:19:53;3.83;;;1.73;;
15287;SDS011;7745;48.708;9.026;2023-03-29T09:22:26;3.90;;;1.43;;
15287;SDS011;7745;48.708;9.026;2023-03-29T09:25:02;2.53;;;1.60;;
15287;SDS011;7745;48.708;9.026;2023-03-29T09:27:37;3.33;;;1.50;;
15287;SDS011;7745;48.708;9.026;2023-03-29T09:30:14;3.93;;;1.70;;
15287;SDS011;7745;48.708;9.026;2023-03-29T09:32:50;2.37;;;1.40;;
15287;SDS011;7745;48.708;9.026;2023-03-29T09:35:20;4.17;;;1.63;;
15287;SDS011;7745;48.708;9.026;2023-03-29T09:37:49;2.40;;;1.10;;
15287;SDS011;7745;48.708;9.026;2023-03-29T09:40:19;2.70;;;1.40;;
15287;SDS011;7745;48.708;9.026;2023-03-29T09:42:49;2.87;;;1.50;;
15287;SDS011;7745;48.708;9.026;2023-03-29T09:45:19;4.57;;;1.43;;
15287;SDS011;7745;48.708;9.026;2023-03-29T09:47:47;2.10;;;1.60;;
15287;SDS011;7745;48.708;9.026;2023-03-29T09:50:18;3.90;;;1.77;;
15287;SDS011;7745;48.708;9.026;2023-03-29T09:52:49;4.63;;;1.80;;
15287;SDS011;7745;48.708;9.026;2023-03-29T09:55:24;2.07;;;1.40;;
15287;SDS011;7745;48.708;9.026;2023-03-29T09:57:53;8.47;;;2.00;;
15287;SDS011;7745;48.708;9.026;2023-03-29T10:00:24;5.00;;;1.70;;
15287;SDS011;7745;48.708;9.026;2023-03-29T10:02:51;2.43;;;1.70;;
15287;SDS011;7745;48.708;9.026;2023-03-29T10:05:19;3.77;;;1.70;;
15287;SDS011;7745;48.708;9.026;2023-03-29T10:07:49;2.30;;;1.57;;
15287;SDS011;7745;48.708;9.026;2023-03-29T10:10:19;2.60;;;1.43;;
15287;SDS011;7745;48.708;9.026;2023-03-29T10:12:51;1.83;;;1.50;;
15287;SDS011;7745;48.708;9.026;2023-03-29T10:15:29;3.90;;;1.60;;
15287;SDS011;7745;48.708;9.026;2023-03-29T10:17:57;3.97;;;1.57;;
15287;SDS011;7745;48.708;9.026;2023-03-29T10:20:27;3.10;;;1.70;;
15287;SDS011;7745;48.708;9.026;2023-03-29T10:22:54;4.43;;;1.43;;
15287;SDS011;7745;48.708;9.026;2023-03-29T10:25:24;1.87;;;1.50;;
15287;SDS011;7745;48.708;9.026;2023-03-29T10:37:47;4.60;;;1.80;;
15287;SDS011;7745;48.708;9.026;2023-03-29T10:40:18;3.93;;;1.67;;
15287;SDS011;7745;48.708;9.026;2023-03-29T10:42:57;2.80;;;1.63;;
15287;SDS011;7745;48.708;9.026;2023-03-29T10:45:26;3.00;;;1.70;;
15287;SDS011;7745;48.708;9.026;2023-03-29T10:48:09;3.30;;;1.90;;
15287;SDS011;7745;48.708;9.026;2023-03-29T10:50:46;4.73;;;1.70;;
15287;SDS011;7745;48.708;9.026;2023-03-29T10:53:18;4.17;;;1.60;;
15287;SDS011;7745;48.708;9.026;2023-03-29T10:59:15;4.43;;;1.90;;
15287;SDS011;7745;48.708;9.026;2023-03-29T11:02:05;2.57;;;1.37;;
15287;SDS011;7745;48.708;9.026;2023-03-29T11:04:53;4.23;;;1.63;;
15287;SDS011;7745;48.708;9.026;2023-03-29T11:07:30;3.67;;;1.50;;
15287;SDS011;7745;48.708;9.026;2023-03-29T11:10:04;5.20;;;1.77;;
15287;SDS011;7745;48.708;9.026;2023-03-29T11:12:44;5.00;;;2.10;;
15287;SDS011;7745;48.708;9.026;2023-03-29T11:15:21;3.93;;;1.70;;
15287;SDS011;7745;48.708;9.026;2023-03-29T11:18:06;5.90;;;1.53;;
15287;SDS011;7745;48.708;9.026;2023-03-29T11:20:48;2.60;;;1.60;;
15287;SDS011;7745;48.708;9.026;2023-03-29T11:23:26;3.60;;;1.10;;
15287;SDS011;7745;48.708;9.026;2023-03-29T11:26:24;2.90;;;1.23;;
15287;SDS011;7745;48.708;9.026;2023-03-29T11:29:00;4.77;;;1.00;;
15287;SDS011;7745;48.708;9.026;2023-03-29T11:31:35;3.23;;;1.30;;
15287;SDS011;7745;48.708;9.026;2023-03-29T11:34:18;3.00;;;1.00;;
15287;SDS011;7745;48.708;9.026;2023-03-29T11:46:44;3.70;;;1.00;;
15287;SDS011;7745;48.708;9.026;2023-03-29T11:49:44;2.07;;;1.00;;
15287;SDS011;7745;48.708;9.026;2023-03-29T11:52:27;2.47;;;1.27;;
15287;SDS011;7745;48.708;9.026;2023-03-29T11:55:13;5.60;;;1.10;;
15287;SDS011;7745;48.708;9.026;2023-03-29T11:57:50;5.80;;;1.20;;
15287;SDS011;7745;48.708;9.026;2023-03-29T12:00:20;4.93;;;1.27;;
15287;SDS011;7745;48.708;9.026;2023-03-29T12:02:51;1.60;;;1.00;;
15287;SDS011;7745;48.708;9.026;2023-03-29T12:05:24;1.90;;;1.07;;
15287;SDS011;7745;48.708;9.026;2023-03-29T12:07:58;3.43;;;1.20;;
15287;SDS011;7745;48.708;9.026;2023-03-29T12:10:29;2.67;;;1.20;;
15287;SDS011;7745;48.708;9.026;2023-03-29T12:13:00;2.87;;;1.17;;
15287;SDS011;7745;48.708;9.026;2023-03-29T12:15:44;3.43;;;1.27;;
15287;SDS011;7745;48.708;9.026;2023-03-29T12:18:19;1.80;;;0.97;;
15287;SDS011;7745;48.708;9.026;2023-03-29T12:20:56;4.67;;;1.50;;
15287;SDS011;7745;48.708;9.026;2023-03-29T12:23:29;3.20;;;1.07;;
15287;SDS011;7745;48.708;9.026;2023-03-29T12:25:59;2.80;;;1.00;;
15287;SDS011;7745;48.708;9.026;2023-03-29T12:28:49;3.93;;;1.30;;
15287;SDS011;7745;48.708;9.026;2023-03-29T12:31:32;2.83;;;1.00;;
15287;SDS011;7745;48.708;9.026;2023-03-29T12:34:16;5.30;;;1.00;;
15287;SDS011;7745;48.708;9.026;2023-03-29T12:37:13;2.60;;;1.10;;
15287;SDS011;7745;48.708;9.026;2023-03-29T12:39:50;3.27;;;1.00;;
15287;SDS011;7745;48.708;9.026;2023-03-29T12:42:18;2.40;;;0.90;;
15287;SDS011;7745;48.708;9.026;2023-03-29T12:44:48;4.83;;;1.10;;
15287;SDS011;7745;48.708;9.026;2023-03-29T12:47:17;4.07;;;1.17;;
15287;SDS011;7745;48.708;9.026;2023-03-29T12:49:48;3.23;;;1.20;;
15287;SDS011;7745;48.708;9.026;2023-03-29T12:52:21;2.33;;;1.20;;
15287;SDS011;7745;48.708;9.026;2023-03-29T12:54:55;2.33;;;1.20;;
15287;SDS011;7745;48.708;9.026;2023-03-29T12:57:25;3.70;;;1.20;;
15287;SDS011;7745;48.708;9.026;2023-03-29T12:59:53;2.17;;;1.30;;
15287;SDS011;7745;48.708;9.026;2023-03-29T13:02:24;1.50;;;0.90;;
15287;SDS011;7745;48.708;9.026;2023-03-29T13:05:00;3.27;;;1.20;;
15287;SDS011;7745;48.708;9.026;2023-03-29T13:07:30;3.57;;;1.07;;
15287;SDS011;7745;48.708;9.026;2023-03-29T13:10:00;1.37;;;0.93;;
15287;SDS011;7745;48.708;9.026;2023-03-29T13:12:28;6.70;;;1.73;;
15287;SDS011;7745;48.708;9.026;2023-03-29T13:15:02;2.73;;;0.90;;
15287;SDS011;7745;48.708;9.026;2023-03-29T13:17:33;2.80;;;1.03;;
15287;SDS011;7745;48.708;9.026;2023-03-29T13:20:24;3.53;;;1.10;;
15287;SDS011;7745;48.708;9.026;2023-03-29T13:23:08;2.10;;;1.10;;
15287;SDS011;7745;48.708;9.026;2023-03-29T13:25:56;3.37;;;1.60;;
15287;SDS011;7745;48.708;9.026;2023-03-29T13:28:36;1.80;;;1.27;;
15287;SDS011;7745;48.708;9.026;2023-03-29T13:31:17;3.60;;;1.30;;
15287;SDS011;7745;48.708;9.026;2023-03-29T13:33:55;2.80;;;1.00;;
15287;SDS011;7745;48.708;9.026;2023-03-29T13:36:30;2.23;;;1.10;;
15287;SDS011;7745;48.708;9.026;2023-03-29T13:39:05;2.93;;;1.30;;
15287;SDS011;7745;48.708;9.026;2023-03-29T13:41:46;6.67;;;1.40;;
15287;SDS011;7745;48.708;9.026;2023-03-29T13:44:26;3.63;;;1.00;;
15287;SDS011;7745;48.708;9.026;2023-03-29T13:47:04;3.00;;;1.10;;
15287;SDS011;7745;48.708;9.026;2023-03-29T13:49:37;3.07;;;1.17;;
15287;SDS011;7745;48.708;9.026;2023-03-29T13:52:11;1.50;;;0.97;;
15287;SDS011;7745;48.708;9.026;2023-03-29T13:54:43;2.60;;;1.20;;
15287;SDS011;7745;48.708;9.026;2023-03-29T13:57:17;1.80;;;1.10;;
15287;SDS011;7745;48.708;9.026;2023-03-29T13:59:48;4.93;;;1.10;;
15287;SDS011;7745;48.708;9.026;2023-03-29T14:02:21;3.83;;;1.50;;
15287;SDS011;7745;48.708;9.026;2023-03-29T14:04:56;5.37;;;1.03;;
15287;SDS011;7745;48.708;9.026;2023-03-29T14:07:26;5.13;;;1.13;;
15287;SDS011;7745;48.708;9.026;2023-03-29T14:09:55;3.43;;;1.10;;
15287;SDS011;7745;48.708;9.026;2023-03-29T14:12:28;2.37;;;0.93;;
15287;SDS011;7745;48.708;9.026;2023-03-29T14:15:02;3.27;;;1.07;;
15287;SDS011;7745;48.708;9.026;2023-03-29T14:24:27;2.90;;;1.10;;
15287;SDS011;7745;48.708;9.026;2023-03-29T14:27:48;3.73;;;1.23;;
15287;SDS011;7745;48.708;9.026;2023-03-29T14:30:58;2.17;;;1.27;;
15287;SDS011;7745;48.708;9.026;2023-03-29T14:48:05;4.40;;;1.20;;
15287;SDS011;7745;48.708;9.026;2023-03-29T14:50:43;5.20;;;1.30;;
15287;SDS011;7745;48.708;9.026;2023-03-29T14:53:32;7.03;;;1.40;;
15287;SDS011;7745;48.708;9.026;2023-03-29T15:00:37;5.83;;;1.27;;
15287;SDS011;7745;48.708;9.026;2023-03-29T15:03:25;4.10;;;1.03;;
15287;SDS011;7745;48.708;9.026;2023-03-29T16:08:49;6.67;;;1.83;;
15287;SDS011;7745;48.708;9.026;2023-03-29T16:11:22;2.53;;;1.33;;
15287;SDS011;7745;48.708;9.026;2023-03-29T16:13:51;4.93;;;2.10;;
15287;SDS011;7745;48.708;9.026;2023-03-29T16:16:17;3.93;;;1.53;;
15287;SDS011;7745;48.708;9.026;2023-03-29T16:18:45;4.03;;;1.47;;
15287;SDS011;7745;48.708;9.026;2023-03-29T16:21:13;4.90;;;1.83;;
15287;SDS011;7745;48.708;9.026;2023-03-29T16:23:42;4.63;;;2.00;;
15287;SDS011;7745;48.708;9.026;2023-03-29T16:26:11;5.33;;;2.50;;
15287;SDS011;7745;48.708;9.026;2023-03-29T16:28:40;5.03;;;2.90;;
15287;SDS011;7745;48.708;9.026;2023-03-29T16:31:07;3.93;;;2.43;;
15287;SDS011;7745;48.708;9.026;2023-03-29T16:33:35;6.63;;;2.03;;
15287;SDS011;7745;48.708;9.026;2023-03-29T16:36:02;4.73;;;1.57;;
15287;SDS011;7745;48.708;9.026;2023-03-29T16:38:29;6.13;;;1.60;;
15287;SDS011;7745;48.708;9.026;2023-03-29T16:40:57;5.33;;;1.90;;
15287;SDS011;7745;48.708;9.026;2023-03-29T16:43:29;4.13;;;1.70;;
15287;SDS011;7745;48.708;9.026;2023-03-29T16:46:08;4.03;;;1.93;;
15287;SDS011;7745;48.708;9.026;2023-03-29T16:48:35;2.70;;;1.70;;
15287;SDS011;7745;48.708;9.026;2023-03-29T16:51:02;5.60;;;1.60;;
15287;SDS011;7745;48.708;9.026;2023-03-29T16:53:31;3.47;;;1.60;;
15287;SDS011;7745;48.708;9.026;2023-03-29T16:55:58;4.50;;;1.40;;
15287;SDS011;7745;48.708;9.026;2023-03-29T16:58:26;5.77;;;1.47;;
15287;SDS011;7745;48.708;9.026;2023-03-29T17:00:54;3.50;;;1.50;;
15287;SDS011;7745;48.708;9.026;2023-03-29T17:03:21;4.43;;;1.53;;
15287;SDS011;7745;48.708;9.026;2023-03-29T17:05:48;4.47;;;1.47;;
15287;SDS011;7745;48.708;9.026;2023-03-29T17:08:16;4.87;;;1.70;;
15287;SDS011;7745;48.708;9.026;2023-03-29T17:10:44;6.47;;;1.87;;
15287;SDS011;7745;48.708;9.026;2023-03-29T17:13:11;3.33;;;1.43;;
15287;SDS011;7745;48.708;9.026;2023-03-29T17:15:39;7.73;;;2.40;;
15287;SDS011;7745;48.708;9.026;2023-03-29T17:18:06;7.33;;;1.90;;
15287;SDS011;7745;48.708;9.026;2023-03-29T17:20:36;6.93;;;1.80;;
15287;SDS011;7745;48.708;9.026;2023-03-29T17:23:03;5.40;;;1.57;;
15287;SDS011;7745;48.708;9.026;2023-03-29T17:25:33;8.87;;;1.90;;
15287;SDS011;7745;48.708;9.026;2023-03-29T17:28:00;6.13;;;1.90;;